Hannover, Germany

9:13 PM CEST on September 27, 2016 (GMT +0200)
Walsroder Straße | | Change Station

Elev 167 ft 52.46 °N, 9.74 °E | Updated 1 minute ago

Clear
Clear
58.8 °F
Feels Like 58.8 °F
N
0.0
Wind Variable Wind from North
Gusts 1.2 mph

Today
High -- | Low -- °F
--% Chance of Precip.
Yesterday
High -- | Low -- °F
Precip. -- in
Pressure 30.27 in
Visibility -9999.0 miles
Clouds
Dew Point 51 °F
Humidity 75%
Rainfall 0.00 in
Snow Depth Not available.
7:16 AM 7:07 PM
Waning Crescent, 10% visible
METAR EDDV 271850Z VRB01KT CAVOK 14/11 Q1025 NOSIG
Pressure 30.27 in
Visibility -9999.0 miles
Clouds
Dew Point 51 °F
Humidity 75%
Rainfall 0.00 in
Snow Depth Not available.
7:16 AM 7:07 PM
Waning Crescent, 10% visible
METAR EDDV 271850Z VRB01KT CAVOK 14/11 Q1025 NOSIG

10-Day Weather Forecast

×

Almanac

Astronomy

Sep. 27, 2016 Rise Set
Actual Time
Civil Twilight
Nautical Twilight
Astronomical Twilight
Moon
Length of Visible Light
Length of Day
Tomorrow will be .
, % of the Moon is Illuminated

Today's Extremes

Country Highs Country Lows

Community

WunderPhotos

Upload Photos

1,942,162 photos uploaded!

WunderBlog® & News

Nearby

Air Quality

  Air Quality AQ Index Pollutant
Not available.

Snow Depth

Station Depth Elevation

Earthquake Activity

City Distance Mag. Time & Date
Minimum magnitude displayed is 2.5.

Coastal Water Temperatures

Place Temperature

Stations

Nearby Weather Stations

Station Location Temp. Windchill Dew Point Humidity Wind Precip. Elev Updated Type